sensor_id;sensor_type;location;lat;lon;timestamp;P1;durP1;ratioP1;P2;durP2;ratioP2
26080;SDS011;13991;51.174;4.438;2022-09-27T00:00:40;10.53;;;0.87;;
26080;SDS011;13991;51.174;4.438;2022-09-27T00:03:07;6.33;;;0.60;;
26080;SDS011;13991;51.174;4.438;2022-09-27T00:05:37;6.63;;;0.73;;
26080;SDS011;13991;51.174;4.438;2022-09-27T00:08:13;16.97;;;1.43;;
26080;SDS011;13991;51.174;4.438;2022-09-27T00:10:44;7.90;;;1.33;;
26080;SDS011;13991;51.174;4.438;2022-09-27T00:13:22;3.50;;;0.70;;
26080;SDS011;13991;51.174;4.438;2022-09-27T00:15:54;14.37;;;0.63;;
26080;SDS011;13991;51.174;4.438;2022-09-27T00:18:23;7.00;;;0.70;;
26080;SDS011;13991;51.174;4.438;2022-09-27T00:20:49;7.23;;;0.87;;
26080;SDS011;13991;51.174;4.438;2022-09-27T00:23:15;6.70;;;0.50;;
26080;SDS011;13991;51.174;4.438;2022-09-27T00:25:53;19.67;;;2.93;;
26080;SDS011;13991;51.174;4.438;2022-09-27T00:28:22;3.90;;;0.47;;
26080;SDS011;13991;51.174;4.438;2022-09-27T00:30:48;9.67;;;0.87;;
26080;SDS011;13991;51.174;4.438;2022-09-27T00:33:17;7.97;;;0.63;;
26080;SDS011;13991;51.174;4.438;2022-09-27T00:35:44;15.40;;;0.90;;
26080;SDS011;13991;51.174;4.438;2022-09-27T00:38:13;9.73;;;0.90;;
26080;SDS011;13991;51.174;4.438;2022-09-27T00:40:41;11.93;;;0.60;;
26080;SDS011;13991;51.174;4.438;2022-09-27T00:43:17;3.40;;;0.47;;
26080;SDS011;13991;51.174;4.438;2022-09-27T00:45:52;16.37;;;0.90;;
26080;SDS011;13991;51.174;4.438;2022-09-27T00:48:21;5.53;;;0.53;;
26080;SDS011;13991;51.174;4.438;2022-09-27T00:50:56;4.17;;;0.50;;
26080;SDS011;13991;51.174;4.438;2022-09-27T00:53:44;6.13;;;0.60;;
26080;SDS011;13991;51.174;4.438;2022-09-27T00:56:20;13.50;;;0.70;;
26080;SDS011;13991;51.174;4.438;2022-09-27T00:59:01;13.87;;;1.07;;
26080;SDS011;13991;51.174;4.438;2022-09-27T01:01:38;10.10;;;0.67;;
26080;SDS011;13991;51.174;4.438;2022-09-27T01:04:16;2.77;;;0.80;;
26080;SDS011;13991;51.174;4.438;2022-09-27T01:06:56;6.30;;;0.90;;
26080;SDS011;13991;51.174;4.438;2022-09-27T01:09:35;13.67;;;1.40;;
26080;SDS011;13991;51.174;4.438;2022-09-27T01:12:12;14.27;;;1.43;;
26080;SDS011;13991;51.174;4.438;2022-09-27T01:15:07;10.77;;;0.90;;
26080;SDS011;13991;51.174;4.438;2022-09-27T01:33:09;6.63;;;0.50;;
26080;SDS011;13991;51.174;4.438;2022-09-27T01:35:51;9.17;;;1.20;;
26080;SDS011;13991;51.174;4.438;2022-09-27T01:39:19;5.27;;;0.50;;
26080;SDS011;13991;51.174;4.438;2022-09-27T01:41:43;3.53;;;0.50;;
26080;SDS011;13991;51.174;4.438;2022-09-27T01:44:26;3.07;;;0.60;;
26080;SDS011;13991;51.174;4.438;2022-09-27T01:46:55;9.63;;;0.80;;
26080;SDS011;13991;51.174;4.438;2022-09-27T01:49:28;4.63;;;0.50;;
26080;SDS011;13991;51.174;4.438;2022-09-27T01:52:16;3.50;;;0.30;;
26080;SDS011;13991;51.174;4.438;2022-09-27T01:54:50;1.60;;;0.20;;
26080;SDS011;13991;51.174;4.438;2022-09-27T01:57:25;7.30;;;0.40;;
26080;SDS011;13991;51.174;4.438;2022-09-27T02:00:05;3.10;;;0.27;;
26080;SDS011;13991;51.174;4.438;2022-09-27T02:02:41;6.47;;;0.43;;
26080;SDS011;13991;51.174;4.438;2022-09-27T02:05:35;8.50;;;0.30;;
26080;SDS011;13991;51.174;4.438;2022-09-27T02:08:22;3.10;;;0.30;;
26080;SDS011;13991;51.174;4.438;2022-09-27T02:11:11;0.77;;;0.20;;
26080;SDS011;13991;51.174;4.438;2022-09-27T02:16:38;4.57;;;0.20;;
26080;SDS011;13991;51.174;4.438;2022-09-27T02:22:38;2.90;;;0.60;;
26080;SDS011;13991;51.174;4.438;2022-09-27T02:25:53;2.57;;;0.27;;
26080;SDS011;13991;51.174;4.438;2022-09-27T02:30:31;8.83;;;0.40;;
26080;SDS011;13991;51.174;4.438;2022-09-27T02:32:57;3.33;;;0.40;;
26080;SDS011;13991;51.174;4.438;2022-09-27T02:35:27;5.20;;;0.50;;
26080;SDS011;13991;51.174;4.438;2022-09-27T02:37:58;1.80;;;0.17;;
26080;SDS011;13991;51.174;4.438;2022-09-27T02:40:29;5.97;;;0.37;;
26080;SDS011;13991;51.174;4.438;2022-09-27T02:42:59;2.23;;;0.20;;
26080;SDS011;13991;51.174;4.438;2022-09-27T02:45:30;0.10;;;0.10;;
26080;SDS011;13991;51.174;4.438;2022-09-27T02:51:25;2.43;;;0.23;;
26080;SDS011;13991;51.174;4.438;2022-09-27T02:54:15;1.67;;;0.17;;
26080;SDS011;13991;51.174;4.438;2022-09-27T02:56:52;4.23;;;0.83;;
26080;SDS011;13991;51.174;4.438;2022-09-27T02:59:41;2.00;;;0.20;;
26080;SDS011;13991;51.174;4.438;2022-09-27T03:02:15;7.43;;;0.20;;
26080;SDS011;13991;51.174;4.438;2022-09-27T03:04:56;0.80;;;0.20;;
26080;SDS011;13991;51.174;4.438;2022-09-27T03:07:29;1.07;;;0.27;;
26080;SDS011;13991;51.174;4.438;2022-09-27T03:09:56;5.70;;;0.30;;
26080;SDS011;13991;51.174;4.438;2022-09-27T03:12:22;10.53;;;0.97;;
26080;SDS011;13991;51.174;4.438;2022-09-27T03:14:55;5.33;;;0.30;;
26080;SDS011;13991;51.174;4.438;2022-09-27T03:17:29;1.17;;;0.20;;
26080;SDS011;13991;51.174;4.438;2022-09-27T03:20:22;4.77;;;0.30;;
26080;SDS011;13991;51.174;4.438;2022-09-27T03:22:53;1.80;;;0.20;;
26080;SDS011;13991;51.174;4.438;2022-09-27T03:25:29;5.60;;;0.30;;
26080;SDS011;13991;51.174;4.438;2022-09-27T03:28:18;3.80;;;0.43;;
26080;SDS011;13991;51.174;4.438;2022-09-27T03:31:09;4.20;;;0.40;;
26080;SDS011;13991;51.174;4.438;2022-09-27T03:34:16;4.00;;;0.60;;
26080;SDS011;13991;51.174;4.438;2022-09-27T03:37:12;0.83;;;0.27;;
26080;SDS011;13991;51.174;4.438;2022-09-27T03:39:45;6.23;;;0.60;;
26080;SDS011;13991;51.174;4.438;2022-09-27T03:42:10;1.63;;;0.30;;
26080;SDS011;13991;51.174;4.438;2022-09-27T03:44:44;8.70;;;0.43;;
26080;SDS011;13991;51.174;4.438;2022-09-27T03:47:17;2.73;;;0.47;;
26080;SDS011;13991;51.174;4.438;2022-09-27T03:49:44;7.73;;;0.53;;
26080;SDS011;13991;51.174;4.438;2022-09-27T03:52:14;0.67;;;0.30;;
26080;SDS011;13991;51.174;4.438;2022-09-27T03:55:00;0.60;;;0.30;;
26080;SDS011;13991;51.174;4.438;2022-09-27T03:57:38;6.07;;;0.47;;
26080;SDS011;13991;51.174;4.438;2022-09-27T04:00:14;2.17;;;0.50;;
26080;SDS011;13991;51.174;4.438;2022-09-27T04:03:00;2.73;;;0.40;;
26080;SDS011;13991;51.174;4.438;2022-09-27T04:05:33;8.23;;;0.63;;
26080;SDS011;13991;51.174;4.438;2022-09-27T04:08:02;16.57;;;0.50;;
26080;SDS011;13991;51.174;4.438;2022-09-27T04:10:33;12.73;;;0.60;;
26080;SDS011;13991;51.174;4.438;2022-09-27T04:13:11;3.30;;;0.50;;
26080;SDS011;13991;51.174;4.438;2022-09-27T04:18:22;7.33;;;0.73;;
26080;SDS011;13991;51.174;4.438;2022-09-27T04:21:04;12.27;;;0.60;;
26080;SDS011;13991;51.174;4.438;2022-09-27T04:23:35;10.43;;;0.77;;
26080;SDS011;13991;51.174;4.438;2022-09-27T04:26:14;7.60;;;0.50;;
26080;SDS011;13991;51.174;4.438;2022-09-27T04:28:51;5.50;;;0.57;;
26080;SDS011;13991;51.174;4.438;2022-09-27T04:31:40;6.60;;;0.80;;
26080;SDS011;13991;51.174;4.438;2022-09-27T04:34:09;3.43;;;0.70;;
26080;SDS011;13991;51.174;4.438;2022-09-27T04:36:38;9.70;;;0.67;;
26080;SDS011;13991;51.174;4.438;2022-09-27T04:39:18;11.10;;;1.07;;
26080;SDS011;13991;51.174;4.438;2022-09-27T04:41:46;6.40;;;0.70;;
26080;SDS011;13991;51.174;4.438;2022-09-27T04:44:20;6.00;;;0.77;;
26080;SDS011;13991;51.174;4.438;2022-09-27T04:46:56;4.87;;;0.90;;
26080;SDS011;13991;51.174;4.438;2022-09-27T04:49:26;3.60;;;0.67;;
26080;SDS011;13991;51.174;4.438;2022-09-27T04:51:52;6.70;;;0.50;;
26080;SDS011;13991;51.174;4.438;2022-09-27T04:54:31;3.73;;;0.60;;
26080;SDS011;13991;51.174;4.438;2022-09-27T04:57:01;10.63;;;0.83;;
26080;SDS011;13991;51.174;4.438;2022-09-27T04:59:30;2.40;;;0.60;;
26080;SDS011;13991;51.174;4.438;2022-09-27T05:01:56;5.37;;;1.47;;
26080;SDS011;13991;51.174;4.438;2022-09-27T05:04:24;8.57;;;1.00;;
26080;SDS011;13991;51.174;4.438;2022-09-27T05:06:55;6.27;;;1.00;;
26080;SDS011;13991;51.174;4.438;2022-09-27T05:09:21;2.60;;;0.77;;
26080;SDS011;13991;51.174;4.438;2022-09-27T05:11:52;6.43;;;1.53;;
26080;SDS011;13991;51.174;4.438;2022-09-27T05:14:26;13.47;;;0.90;;
26080;SDS011;13991;51.174;4.438;2022-09-27T05:17:02;7.87;;;1.53;;
26080;SDS011;13991;51.174;4.438;2022-09-27T05:20:08;10.20;;;1.73;;
26080;SDS011;13991;51.174;4.438;2022-09-27T05:22:51;6.77;;;1.27;;
26080;SDS011;13991;51.174;4.438;2022-09-27T05:28:18;7.03;;;2.17;;
26080;SDS011;13991;51.174;4.438;2022-09-27T05:31:06;8.73;;;1.93;;
26080;SDS011;13991;51.174;4.438;2022-09-27T05:33:32;15.50;;;5.77;;
26080;SDS011;13991;51.174;4.438;2022-09-27T05:36:27;7.23;;;2.30;;
26080;SDS011;13991;51.174;4.438;2022-09-27T05:39:05;7.27;;;2.50;;
26080;SDS011;13991;51.174;4.438;2022-09-27T05:41:34;11.07;;;2.40;;
26080;SDS011;13991;51.174;4.438;2022-09-27T05:44:31;14.80;;;2.40;;
26080;SDS011;13991;51.174;4.438;2022-09-27T05:46:59;8.57;;;2.33;;
26080;SDS011;13991;51.174;4.438;2022-09-27T05:49:42;22.00;;;3.73;;
26080;SDS011;13991;51.174;4.438;2022-09-27T05:52:12;9.07;;;2.93;;
26080;SDS011;13991;51.174;4.438;2022-09-27T05:54:44;9.97;;;3.43;;
26080;SDS011;13991;51.174;4.438;2022-09-27T05:57:26;10.37;;;2.90;;
26080;SDS011;13991;51.174;4.438;2022-09-27T06:00:07;17.30;;;3.37;;
26080;SDS011;13991;51.174;4.438;2022-09-27T06:02:36;11.43;;;3.13;;
26080;SDS011;13991;51.174;4.438;2022-09-27T06:05:40;8.63;;;3.47;;
26080;SDS011;13991;51.174;4.438;2022-09-27T06:08:09;11.63;;;3.70;;
26080;SDS011;13991;51.174;4.438;2022-09-27T06:10:38;8.43;;;3.30;;
26080;SDS011;13991;51.174;4.438;2022-09-27T06:13:12;12.60;;;4.33;;
26080;SDS011;13991;51.174;4.438;2022-09-27T06:15:41;13.10;;;3.83;;
26080;SDS011;13991;51.174;4.438;2022-09-27T06:18:13;11.70;;;3.93;;
26080;SDS011;13991;51.174;4.438;2022-09-27T06:20:42;8.57;;;4.20;;
26080;SDS011;13991;51.174;4.438;2022-09-27T06:23:09;15.87;;;4.57;;
26080;SDS011;13991;51.174;4.438;2022-09-27T06:25:37;9.83;;;3.77;;
26080;SDS011;13991;51.174;4.438;2022-09-27T06:28:15;9.93;;;3.23;;
26080;SDS011;13991;51.174;4.438;2022-09-27T06:30:43;17.93;;;3.60;;
26080;SDS011;13991;51.174;4.438;2022-09-27T06:33:16;8.27;;;3.77;;
26080;SDS011;13991;51.174;4.438;2022-09-27T06:35:49;14.67;;;3.23;;
26080;SDS011;13991;51.174;4.438;2022-09-27T06:38:17;25.87;;;4.97;;
26080;SDS011;13991;51.174;4.438;2022-09-27T06:40:48;16.17;;;3.40;;
26080;SDS011;13991;51.174;4.438;2022-09-27T06:43:14;13.27;;;3.50;;
26080;SDS011;13991;51.174;4.438;2022-09-27T06:45:45;10.20;;;3.03;;
26080;SDS011;13991;51.174;4.438;2022-09-27T06:48:32;17.03;;;3.80;;
26080;SDS011;13991;51.174;4.438;2022-09-27T06:51:06;12.43;;;3.10;;
26080;SDS011;13991;51.174;4.438;2022-09-27T06:53:40;11.97;;;3.10;;
26080;SDS011;13991;51.174;4.438;2022-09-27T06:56:21;9.57;;;3.10;;
26080;SDS011;13991;51.174;4.438;2022-09-27T06:58:50;11.80;;;3.03;;
26080;SDS011;13991;51.174;4.438;2022-09-27T07:01:34;13.80;;;3.40;;
26080;SDS011;13991;51.174;4.438;2022-09-27T07:04:00;10.80;;;3.13;;
26080;SDS011;13991;51.174;4.438;2022-09-27T07:06:29;10.77;;;2.50;;
26080;SDS011;13991;51.174;4.438;2022-09-27T07:09:03;6.40;;;2.07;;
26080;SDS011;13991;51.174;4.438;2022-09-27T07:11:55;11.17;;;2.93;;
26080;SDS011;13991;51.174;4.438;2022-09-27T07:14:23;11.87;;;2.57;;
26080;SDS011;13991;51.174;4.438;2022-09-27T07:16:58;7.10;;;2.20;;
26080;SDS011;13991;51.174;4.438;2022-09-27T07:19:27;10.20;;;2.43;;
26080;SDS011;13991;51.174;4.438;2022-09-27T07:22:05;4.37;;;2.23;;
26080;SDS011;13991;51.174;4.438;2022-09-27T07:24:39;6.33;;;2.03;;
26080;SDS011;13991;51.174;4.438;2022-09-27T07:27:19;5.73;;;1.93;;
26080;SDS011;13991;51.174;4.438;2022-09-27T07:29:57;11.37;;;2.47;;
26080;SDS011;13991;51.174;4.438;2022-09-27T07:32:33;12.53;;;2.80;;
26080;SDS011;13991;51.174;4.438;2022-09-27T07:35:05;8.27;;;2.87;;
26080;SDS011;13991;51.174;4.438;2022-09-27T07:37:53;14.53;;;3.03;;
26080;SDS011;13991;51.174;4.438;2022-09-27T07:40:26;7.73;;;2.57;;
26080;SDS011;13991;51.174;4.438;2022-09-27T07:42:59;14.47;;;3.10;;
26080;SDS011;13991;51.174;4.438;2022-09-27T07:45:46;9.30;;;2.60;;
26080;SDS011;13991;51.174;4.438;2022-09-27T07:48:25;8.37;;;2.70;;
26080;SDS011;13991;51.174;4.438;2022-09-27T07:50:54;12.57;;;4.27;;
26080;SDS011;13991;51.174;4.438;2022-09-27T07:53:27;11.93;;;3.53;;
26080;SDS011;13991;51.174;4.438;2022-09-27T07:56:00;15.03;;;3.47;;
26080;SDS011;13991;51.174;4.438;2022-09-27T07:58:45;12.10;;;2.63;;
26080;SDS011;13991;51.174;4.438;2022-09-27T08:01:13;7.60;;;2.47;;
26080;SDS011;13991;51.174;4.438;2022-09-27T08:06:30;11.87;;;3.17;;
26080;SDS011;13991;51.174;4.438;2022-09-27T08:09:00;9.30;;;2.43;;
26080;SDS011;13991;51.174;4.438;2022-09-27T08:11:30;7.33;;;2.70;;
26080;SDS011;13991;51.174;4.438;2022-09-27T08:14:04;13.60;;;3.70;;
26080;SDS011;13991;51.174;4.438;2022-09-27T08:16:57;8.90;;;2.80;;
26080;SDS011;13991;51.174;4.438;2022-09-27T08:19:34;16.17;;;2.83;;
26080;SDS011;13991;51.174;4.438;2022-09-27T08:22:13;14.27;;;2.83;;
26080;SDS011;13991;51.174;4.438;2022-09-27T08:25:09;16.80;;;2.80;;
26080;SDS011;13991;51.174;4.438;2022-09-27T08:27:40;7.90;;;2.50;;
26080;SDS011;13991;51.174;4.438;2022-09-27T08:33:25;15.33;;;3.13;;
26080;SDS011;13991;51.174;4.438;2022-09-27T08:35:54;8.20;;;3.13;;
26080;SDS011;13991;51.174;4.438;2022-09-27T08:38:30;14.20;;;3.50;;
26080;SDS011;13991;51.174;4.438;2022-09-27T08:47:38;8.17;;;2.53;;
26080;SDS011;13991;51.174;4.438;2022-09-27T08:50:26;14.80;;;2.80;;
26080;SDS011;13991;51.174;4.438;2022-09-27T08:56:44;5.63;;;1.97;;
26080;SDS011;13991;51.174;4.438;2022-09-27T08:59:24;12.53;;;2.50;;
26080;SDS011;13991;51.174;4.438;2022-09-27T09:02:18;6.83;;;2.27;;
26080;SDS011;13991;51.174;4.438;2022-09-27T09:04:52;7.93;;;2.20;;
26080;SDS011;13991;51.174;4.438;2022-09-27T09:07:44;7.93;;;1.97;;
26080;SDS011;13991;51.174;4.438;2022-09-27T09:22:24;23.13;;;2.43;;
26080;SDS011;13991;51.174;4.438;2022-09-27T09:30:34;12.20;;;2.00;;
26080;SDS011;13991;51.174;4.438;2022-09-27T09:33:30;7.17;;;2.10;;
26080;SDS011;13991;51.174;4.438;2022-09-27T09:36:08;6.77;;;1.97;;
26080;SDS011;13991;51.174;4.438;2022-09-27T09:39:03;5.73;;;1.73;;
26080;SDS011;13991;51.174;4.438;2022-09-27T09:56:33;8.47;;;2.07;;
26080;SDS011;13991;51.174;4.438;2022-09-27T09:59:20;18.23;;;3.10;;
26080;SDS011;13991;51.174;4.438;2022-09-27T10:05:21;23.20;;;3.07;;
26080;SDS011;13991;51.174;4.438;2022-09-27T10:07:51;10.70;;;1.90;;
26080;SDS011;13991;51.174;4.438;2022-09-27T10:10:42;11.87;;;3.00;;
26080;SDS011;13991;51.174;4.438;2022-09-27T10:16:21;10.33;;;2.60;;
26080;SDS011;13991;51.174;4.438;2022-09-27T10:19:02;11.03;;;2.60;;
26080;SDS011;13991;51.174;4.438;2022-09-27T10:22:02;9.10;;;2.17;;
26080;SDS011;13991;51.174;4.438;2022-09-27T10:28:02;10.97;;;3.30;;
26080;SDS011;13991;51.174;4.438;2022-09-27T10:30:43;18.07;;;5.93;;
26080;SDS011;13991;51.174;4.438;2022-09-27T10:33:22;15.80;;;5.70;;
26080;SDS011;13991;51.174;4.438;2022-09-27T10:39:32;10.43;;;4.57;;
26080;SDS011;13991;51.174;4.438;2022-09-27T10:42:00;18.97;;;4.03;;
26080;SDS011;13991;51.174;4.438;2022-09-27T10:44:30;17.10;;;4.43;;
26080;SDS011;13991;51.174;4.438;2022-09-27T10:47:00;14.00;;;3.43;;
26080;SDS011;13991;51.174;4.438;2022-09-27T10:49:40;15.90;;;3.47;;
26080;SDS011;13991;51.174;4.438;2022-09-27T10:52:15;12.13;;;3.30;;
26080;SDS011;13991;51.174;4.438;2022-09-27T10:54:51;14.73;;;4.83;;
26080;SDS011;13991;51.174;4.438;2022-09-27T10:57:26;9.30;;;2.00;;
26080;SDS011;13991;51.174;4.438;2022-09-27T11:00:16;12.00;;;1.97;;
26080;SDS011;13991;51.174;4.438;2022-09-27T11:03:00;7.13;;;0.70;;
26080;SDS011;13991;51.174;4.438;2022-09-27T11:05:47;19.37;;;1.37;;
26080;SDS011;13991;51.174;4.438;2022-09-27T11:12:35;4.80;;;0.80;;
26080;SDS011;13991;51.174;4.438;2022-09-27T11:15:16;3.23;;;0.40;;
26080;SDS011;13991;51.174;4.438;2022-09-27T11:18:06;4.50;;;0.77;;
26080;SDS011;13991;51.174;4.438;2022-09-27T11:24:48;7.77;;;0.73;;
26080;SDS011;13991;51.174;4.438;2022-09-27T11:28:01;9.87;;;1.10;;
26080;SDS011;13991;51.174;4.438;2022-09-27T11:31:26;9.83;;;0.90;;
26080;SDS011;13991;51.174;4.438;2022-09-27T11:34:28;10.33;;;1.20;;
26080;SDS011;13991;51.174;4.438;2022-09-27T11:37:14;12.60;;;1.00;;
26080;SDS011;13991;51.174;4.438;2022-09-27T11:43:32;9.13;;;1.03;;
26080;SDS011;13991;51.174;4.438;2022-09-27T11:58:41;1.90;;;0.40;;
26080;SDS011;13991;51.174;4.438;2022-09-27T12:02:20;3.23;;;0.30;;
26080;SDS011;13991;51.174;4.438;2022-09-27T12:14:21;3.40;;;0.40;;
26080;SDS011;13991;51.174;4.438;2022-09-27T12:17:20;7.00;;;0.50;;
26080;SDS011;13991;51.174;4.438;2022-09-27T12:19:54;4.13;;;0.70;;
26080;SDS011;13991;51.174;4.438;2022-09-27T12:22:28;6.17;;;0.70;;
26080;SDS011;13991;51.174;4.438;2022-09-27T12:25:02;10.83;;;1.03;;
26080;SDS011;13991;51.174;4.438;2022-09-27T12:30:22;7.20;;;0.77;;
26080;SDS011;13991;51.174;4.438;2022-09-27T12:35:51;2.23;;;0.60;;
26080;SDS011;13991;51.174;4.438;2022-09-27T12:42:03;8.43;;;0.90;;
26080;SDS011;13991;51.174;4.438;2022-09-27T12:52:07;8.90;;;2.50;;
26080;SDS011;13991;51.174;4.438;2022-09-27T12:55:38;10.93;;;0.90;;
26080;SDS011;13991;51.174;4.438;2022-09-27T13:22:38;13.20;;;2.00;;
26080;SDS011;13991;51.174;4.438;2022-09-27T13:39:33;12.20;;;1.73;;
26080;SDS011;13991;51.174;4.438;2022-09-27T13:46:59;7.67;;;1.10;;
26080;SDS011;13991;51.174;4.438;2022-09-27T13:53:34;10.50;;;1.30;;
26080;SDS011;13991;51.174;4.438;2022-09-27T14:00:02;18.13;;;2.33;;
26080;SDS011;13991;51.174;4.438;2022-09-27T14:06:05;9.07;;;1.10;;
26080;SDS011;13991;51.174;4.438;2022-09-27T14:11:36;10.00;;;1.90;;
26080;SDS011;13991;51.174;4.438;2022-09-27T14:14:04;17.10;;;2.50;;
26080;SDS011;13991;51.174;4.438;2022-09-27T14:16:40;16.70;;;2.33;;
26080;SDS011;13991;51.174;4.438;2022-09-27T14:19:20;9.67;;;1.37;;
26080;SDS011;13991;51.174;4.438;2022-09-27T14:21:48;17.40;;;1.60;;
26080;SDS011;13991;51.174;4.438;2022-09-27T14:24:25;8.87;;;1.43;;
26080;SDS011;13991;51.174;4.438;2022-09-27T14:32:18;9.87;;;1.77;;
26080;SDS011;13991;51.174;4.438;2022-09-27T14:35:01;12.43;;;1.37;;
26080;SDS011;13991;51.174;4.438;2022-09-27T14:37:52;7.87;;;1.67;;
26080;SDS011;13991;51.174;4.438;2022-09-27T14:40:18;18.13;;;4.10;;
26080;SDS011;13991;51.174;4.438;2022-09-27T14:42:46;10.57;;;1.57;;
26080;SDS011;13991;51.174;4.438;2022-09-27T14:45:19;15.47;;;1.67;;
26080;SDS011;13991;51.174;4.438;2022-09-27T14:47:47;15.33;;;1.80;;
26080;SDS011;13991;51.174;4.438;2022-09-27T14:50:23;12.53;;;2.23;;
26080;SDS011;13991;51.174;4.438;2022-09-27T14:52:52;6.43;;;0.90;;
26080;SDS011;13991;51.174;4.438;2022-09-27T14:55:21;6.23;;;0.80;;
26080;SDS011;13991;51.174;4.438;2022-09-27T14:57:53;11.17;;;1.37;;
26080;SDS011;13991;51.174;4.438;2022-09-27T15:03:19;8.47;;;1.33;;
26080;SDS011;13991;51.174;4.438;2022-09-27T15:06:02;4.90;;;0.97;;
26080;SDS011;13991;51.174;4.438;2022-09-27T15:08:34;8.13;;;1.07;;
26080;SDS011;13991;51.174;4.438;2022-09-27T15:11:15;8.57;;;0.93;;
26080;SDS011;13991;51.174;4.438;2022-09-27T15:13:51;10.17;;;0.83;;
26080;SDS011;13991;51.174;4.438;2022-09-27T15:16:29;10.13;;;1.10;;
26080;SDS011;13991;51.174;4.438;2022-09-27T15:19:27;10.70;;;1.00;;
26080;SDS011;13991;51.174;4.438;2022-09-27T15:28:54;9.07;;;1.10;;
26080;SDS011;13991;51.174;4.438;2022-09-27T15:31:30;10.10;;;1.07;;
26080;SDS011;13991;51.174;4.438;2022-09-27T15:34:35;12.73;;;1.20;;
26080;SDS011;13991;51.174;4.438;2022-09-27T15:37:37;8.57;;;1.40;;
26080;SDS011;13991;51.174;4.438;2022-09-27T15:43:24;12.83;;;1.13;;
26080;SDS011;13991;51.174;4.438;2022-09-27T15:49:20;9.37;;;1.20;;
26080;SDS011;13991;51.174;4.438;2022-09-27T15:52:06;8.97;;;1.07;;
26080;SDS011;13991;51.174;4.438;2022-09-27T15:55:29;15.33;;;1.87;;
26080;SDS011;13991;51.174;4.438;2022-09-27T15:58:09;8.70;;;0.93;;
26080;SDS011;13991;51.174;4.438;2022-09-27T16:00:56;16.37;;;2.23;;
26080;SDS011;13991;51.174;4.438;2022-09-27T16:07:11;7.17;;;1.07;;
26080;SDS011;13991;51.174;4.438;2022-09-27T16:10:01;7.80;;;1.60;;
26080;SDS011;13991;51.174;4.438;2022-09-27T16:12:54;5.30;;;1.10;;
26080;SDS011;13991;51.174;4.438;2022-09-27T16:15:26;6.87;;;0.93;;
26080;SDS011;13991;51.174;4.438;2022-09-27T16:18:13;5.90;;;1.17;;
26080;SDS011;13991;51.174;4.438;2022-09-27T16:21:02;6.43;;;0.90;;
26080;SDS011;13991;51.174;4.438;2022-09-27T16:26:04;4.50;;;0.70;;
26080;SDS011;13991;51.174;4.438;2022-09-27T16:28:31;9.17;;;1.30;;
26080;SDS011;13991;51.174;4.438;2022-09-27T16:31:02;7.50;;;1.50;;
26080;SDS011;13991;51.174;4.438;2022-09-27T16:33:32;6.00;;;1.10;;
26080;SDS011;13991;51.174;4.438;2022-09-27T16:35:58;6.53;;;1.63;;
26080;SDS011;13991;51.174;4.438;2022-09-27T16:38:31;9.20;;;1.20;;
26080;SDS011;13991;51.174;4.438;2022-09-27T16:41:30;6.77;;;1.40;;
26080;SDS011;13991;51.174;4.438;2022-09-27T16:44:08;16.80;;;1.43;;
26080;SDS011;13991;51.174;4.438;2022-09-27T16:47:12;10.67;;;1.53;;
26080;SDS011;13991;51.174;4.438;2022-09-27T16:49:59;10.13;;;1.10;;
26080;SDS011;13991;51.174;4.438;2022-09-27T16:52:47;9.20;;;1.97;;
26080;SDS011;13991;51.174;4.438;2022-09-27T16:55:20;17.57;;;1.27;;
26080;SDS011;13991;51.174;4.438;2022-09-27T16:57:47;7.93;;;1.33;;
26080;SDS011;13991;51.174;4.438;2022-09-27T17:00:19;16.63;;;1.30;;
26080;SDS011;13991;51.174;4.438;2022-09-27T17:03:37;9.53;;;1.73;;
26080;SDS011;13991;51.174;4.438;2022-09-27T17:06:21;8.63;;;1.20;;
26080;SDS011;13991;51.174;4.438;2022-09-27T17:08:47;14.77;;;1.30;;
26080;SDS011;13991;51.174;4.438;2022-09-27T17:11:20;11.53;;;1.33;;
26080;SDS011;13991;51.174;4.438;2022-09-27T17:13:57;8.97;;;1.30;;
26080;SDS011;13991;51.174;4.438;2022-09-27T17:16:32;9.60;;;1.37;;
26080;SDS011;13991;51.174;4.438;2022-09-27T17:19:03;10.70;;;1.83;;
26080;SDS011;13991;51.174;4.438;2022-09-27T17:21:37;14.20;;;1.80;;
26080;SDS011;13991;51.174;4.438;2022-09-27T17:24:07;13.50;;;2.20;;
26080;SDS011;13991;51.174;4.438;2022-09-27T17:26:44;14.97;;;2.17;;
26080;SDS011;13991;51.174;4.438;2022-09-27T17:29:23;10.97;;;1.67;;
26080;SDS011;13991;51.174;4.438;2022-09-27T17:32:05;23.20;;;2.80;;
26080;SDS011;13991;51.174;4.438;2022-09-27T17:34:42;13.13;;;2.13;;
26080;SDS011;13991;51.174;4.438;2022-09-27T17:37:40;10.20;;;2.17;;
26080;SDS011;13991;51.174;4.438;2022-09-27T17:40:15;11.30;;;2.70;;
26080;SDS011;13991;51.174;4.438;2022-09-27T17:42:42;13.83;;;2.83;;
26080;SDS011;13991;51.174;4.438;2022-09-27T17:45:17;10.60;;;2.50;;
26080;SDS011;13991;51.174;4.438;2022-09-27T17:47:46;10.43;;;2.57;;
26080;SDS011;13991;51.174;4.438;2022-09-27T17:50:34;11.83;;;2.23;;
26080;SDS011;13991;51.174;4.438;2022-09-27T17:53:22;14.03;;;2.53;;
26080;SDS011;13991;51.174;4.438;2022-09-27T17:56:07;16.60;;;2.43;;
26080;SDS011;13991;51.174;4.438;2022-09-27T17:58:55;10.60;;;2.63;;
26080;SDS011;13991;51.174;4.438;2022-09-27T18:01:51;19.53;;;3.10;;
26080;SDS011;13991;51.174;4.438;2022-09-27T18:04:22;10.53;;;2.10;;
26080;SDS011;13991;51.174;4.438;2022-09-27T18:10:11;12.17;;;1.57;;
26080;SDS011;13991;51.174;4.438;2022-09-27T18:12:40;9.20;;;0.97;;
26080;SDS011;13991;51.174;4.438;2022-09-27T18:15:12;7.90;;;1.40;;
26080;SDS011;13991;51.174;4.438;2022-09-27T18:17:41;4.93;;;0.73;;
26080;SDS011;13991;51.174;4.438;2022-09-27T18:20:09;3.47;;;0.90;;
26080;SDS011;13991;51.174;4.438;2022-09-27T18:22:37;8.03;;;1.33;;
26080;SDS011;13991;51.174;4.438;2022-09-27T18:25:02;1.53;;;0.60;;
26080;SDS011;13991;51.174;4.438;2022-09-27T18:27:29;8.17;;;0.70;;
26080;SDS011;13991;51.174;4.438;2022-09-27T18:29:58;7.53;;;1.80;;
26080;SDS011;13991;51.174;4.438;2022-09-27T18:32:27;11.80;;;2.50;;
26080;SDS011;13991;51.174;4.438;2022-09-27T18:35:01;3.73;;;1.03;;
26080;SDS011;13991;51.174;4.438;2022-09-27T18:37:28;5.53;;;1.00;;
26080;SDS011;13991;51.174;4.438;2022-09-27T18:39:54;1.77;;;0.50;;
26080;SDS011;13991;51.174;4.438;2022-09-27T18:42:20;5.87;;;0.60;;
26080;SDS011;13991;51.174;4.438;2022-09-27T18:44:46;2.00;;;0.40;;
26080;SDS011;13991;51.174;4.438;2022-09-27T18:47:12;6.03;;;1.20;;
26080;SDS011;13991;51.174;4.438;2022-09-27T18:49:38;2.37;;;0.50;;
26080;SDS011;13991;51.174;4.438;2022-09-27T18:52:04;13.23;;;0.87;;
26080;SDS011;13991;51.174;4.438;2022-09-27T18:54:30;3.23;;;1.03;;
26080;SDS011;13991;51.174;4.438;2022-09-27T18:56:56;5.53;;;1.47;;
26080;SDS011;13991;51.174;4.438;2022-09-27T18:59:22;3.47;;;0.70;;
26080;SDS011;13991;51.174;4.438;2022-09-27T19:01:48;10.90;;;0.70;;
26080;SDS011;13991;51.174;4.438;2022-09-27T19:04:15;5.47;;;0.70;;
26080;SDS011;13991;51.174;4.438;2022-09-27T19:06:51;5.50;;;0.87;;
26080;SDS011;13991;51.174;4.438;2022-09-27T19:09:18;9.73;;;0.67;;
26080;SDS011;13991;51.174;4.438;2022-09-27T19:11:53;2.47;;;0.70;;
26080;SDS011;13991;51.174;4.438;2022-09-27T19:14:30;4.07;;;0.60;;
26080;SDS011;13991;51.174;4.438;2022-09-27T19:16:58;10.13;;;0.97;;
26080;SDS011;13991;51.174;4.438;2022-09-27T19:19:24;5.87;;;0.77;;
26080;SDS011;13991;51.174;4.438;2022-09-27T19:21:50;6.20;;;1.10;;
26080;SDS011;13991;51.174;4.438;2022-09-27T19:24:16;4.32;;;1.27;;
26080;SDS011;13991;51.174;4.438;2022-09-27T19:26:47;3.90;;;0.50;;
26080;SDS011;13991;51.174;4.438;2022-09-27T19:29:23;2.93;;;0.90;;
26080;SDS011;13991;51.174;4.438;2022-09-27T19:31:55;1.40;;;0.60;;
26080;SDS011;13991;51.174;4.438;2022-09-27T19:34:31;3.77;;;0.80;;
26080;SDS011;13991;51.174;4.438;2022-09-27T19:37:06;6.20;;;0.67;;